createdAt,value
2022-12-20T00:19:51.607Z,1009.25
2022-12-20T00:20:51.543Z,1009.26
2022-12-20T00:21:51.528Z,1009.21
2022-12-20T00:22:51.552Z,1009.27
2022-12-20T00:23:51.506Z,1009.18
2022-12-20T00:24:51.498Z,1009.19
2022-12-20T00:25:51.501Z,1009.19
2022-12-20T00:26:51.473Z,1009.24
2022-12-20T00:27:51.492Z,1009.20
2022-12-20T00:28:51.450Z,1009.12
2022-12-20T00:29:51.443Z,1009.18
2022-12-20T00:30:56.458Z,1009.11
2022-12-20T00:31:51.695Z,1009.11
2022-12-20T00:32:51.442Z,1009.08
2022-12-20T00:33:51.402Z,1009.10
2022-12-20T00:34:51.399Z,1008.98
2022-12-20T00:35:52.446Z,1009.04
2022-12-20T00:36:51.382Z,1009.08
2022-12-20T00:37:51.362Z,1008.99
2022-12-20T00:38:51.343Z,1008.99
2022-12-20T00:39:51.327Z,1009.03
2022-12-20T00:40:51.326Z,1008.99
2022-12-20T00:41:57.322Z,1009.06
2022-12-20T00:42:51.315Z,1009.03
2022-12-20T00:43:51.300Z,1009.01
2022-12-20T00:44:51.276Z,1008.99
2022-12-20T00:45:51.673Z,1009.02
2022-12-20T00:46:51.349Z,1009.04
2022-12-20T00:47:51.269Z,1008.98
2022-12-20T00:48:51.234Z,1009.02
2022-12-20T00:49:51.217Z,1009.01
2022-12-20T00:50:51.223Z,1009.07
2022-12-20T00:51:51.217Z,1009.15
2022-12-20T00:52:56.217Z,1009.08
2022-12-20T00:53:51.174Z,1009.06
2022-12-20T00:54:51.164Z,1009.18
2022-12-20T00:55:51.154Z,1009.12
2022-12-20T00:56:51.145Z,1009.18
2022-12-20T00:57:51.138Z,1009.13
2022-12-20T00:58:51.125Z,1009.08
2022-12-20T00:59:51.136Z,1009.14
2022-12-20T01:00:56.087Z,1009.20
2022-12-20T01:01:52.367Z,1009.23
2022-12-20T01:02:51.216Z,1009.18
2022-12-20T01:03:56.113Z,1009.19
2022-12-20T01:04:51.070Z,1009.22
2022-12-20T01:05:51.097Z,1009.15
2022-12-20T01:06:51.034Z,1009.13
2022-12-20T01:07:51.064Z,1009.22
2022-12-20T01:08:51.006Z,1009.19
2022-12-20T01:09:51.018Z,1009.19
2022-12-20T01:10:50.988Z,1009.14
2022-12-20T01:11:51.707Z,1009.16
2022-12-20T01:12:50.991Z,1009.08
2022-12-20T01:13:50.954Z,1009.09
2022-12-20T01:14:56.051Z,1009.09
2022-12-20T01:15:50.955Z,1009.13
2022-12-20T01:16:51.038Z,1009.11
2022-12-20T01:17:50.923Z,1009.12
2022-12-20T01:18:50.940Z,1009.09
2022-12-20T01:19:50.889Z,1009.07
2022-12-20T01:20:50.876Z,1009.18
2022-12-20T01:21:50.863Z,1009.17
2022-12-20T01:22:50.902Z,1009.14
2022-12-20T01:23:50.871Z,1009.13
2022-12-20T01:24:50.840Z,1009.05
2022-12-20T01:25:55.849Z,1009.04
2022-12-20T01:26:50.832Z,1009.01
2022-12-20T01:27:50.814Z,1008.96
2022-12-20T01:28:50.799Z,1009.00
2022-12-20T01:29:50.783Z,1008.99
2022-12-20T01:30:50.792Z,1009.05
2022-12-20T01:31:50.799Z,1008.99
2022-12-20T01:32:50.763Z,1008.98
2022-12-20T01:33:50.732Z,1008.92
2022-12-20T01:34:50.792Z,1009.00
2022-12-20T01:35:50.715Z,1009.00
2022-12-20T01:36:55.774Z,1009.04
2022-12-20T01:37:50.707Z,1009.03
2022-12-20T01:38:50.684Z,1009.03
2022-12-20T01:39:50.699Z,1009.05
2022-12-20T01:40:50.667Z,1009.01
2022-12-20T01:41:50.653Z,1009.10
2022-12-20T01:42:50.666Z,1009.12
2022-12-20T01:43:50.664Z,1009.11
2022-12-20T01:44:50.614Z,1009.10
2022-12-20T01:45:50.740Z,1009.02
2022-12-20T01:46:50.589Z,1009.08
2022-12-20T01:47:55.625Z,1009.06
2022-12-20T01:48:50.580Z,1009.00
2022-12-20T01:49:50.563Z,1009.05
2022-12-20T01:50:50.557Z,1008.99
2022-12-20T01:51:50.577Z,1008.96
2022-12-20T01:52:50.527Z,1008.94
2022-12-20T01:53:50.533Z,1008.90
2022-12-20T01:54:50.508Z,1008.80
2022-12-20T01:55:50.519Z,1008.83
2022-12-20T01:56:50.495Z,1008.81
2022-12-20T01:57:50.500Z,1008.78
2022-12-20T01:58:55.495Z,1008.79
2022-12-20T01:59:50.465Z,1008.78
2022-12-20T02:00:50.497Z,1008.79
2022-12-20T02:01:50.682Z,1008.77
2022-12-20T02:02:50.605Z,1008.79
2022-12-20T02:03:50.419Z,1008.72
2022-12-20T02:04:50.421Z,1008.77
2022-12-20T02:05:50.380Z,1008.69
2022-12-20T02:06:50.380Z,1008.77
2022-12-20T02:07:50.361Z,1008.73
2022-12-20T02:08:50.365Z,1008.70
2022-12-20T02:09:55.358Z,1008.62
2022-12-20T02:10:50.328Z,1008.62
2022-12-20T02:11:50.343Z,1008.60
2022-12-20T02:12:50.309Z,1008.59
2022-12-20T02:13:50.314Z,1008.56
2022-12-20T02:14:50.292Z,1008.62
2022-12-20T02:15:50.275Z,1008.61
2022-12-20T02:16:50.335Z,1008.57
2022-12-20T02:17:50.255Z,1008.58
2022-12-20T02:18:50.297Z,1008.57
2022-12-20T02:19:51.230Z,1008.56
2022-12-20T02:20:55.241Z,1008.51
2022-12-20T02:21:50.226Z,1008.49
2022-12-20T02:22:50.195Z,1008.52
2022-12-20T02:23:50.198Z,1008.51
2022-12-20T02:24:50.181Z,1008.47
2022-12-20T02:25:50.162Z,1008.46
2022-12-20T02:26:50.152Z,1008.42
2022-12-20T02:27:50.166Z,1008.45
2022-12-20T02:28:50.129Z,1008.43
2022-12-20T02:29:50.170Z,1008.41
2022-12-20T02:30:50.120Z,1008.41
2022-12-20T02:31:55.223Z,1008.29
2022-12-20T02:32:51.092Z,1008.26
2022-12-20T02:33:50.110Z,1008.34
2022-12-20T02:34:50.096Z,1008.22
2022-12-20T02:35:50.047Z,1008.23
2022-12-20T02:36:50.037Z,1008.23
2022-12-20T02:37:50.036Z,1008.15
2022-12-20T02:38:50.016Z,1008.16
2022-12-20T02:39:50.024Z,1008.13
2022-12-20T02:40:49.989Z,1008.12
2022-12-20T02:41:49.980Z,1008.09
2022-12-20T02:42:55.022Z,1008.10
2022-12-20T02:43:49.975Z,1008.08
2022-12-20T02:44:50.008Z,1008.21
2022-12-20T02:45:49.963Z,1008.11
2022-12-20T02:46:49.939Z,1008.12
2022-12-20T02:47:49.916Z,1008.11
2022-12-20T02:48:49.901Z,1008.09
2022-12-20T02:49:49.923Z,1008.11
2022-12-20T02:50:49.924Z,1008.23
2022-12-20T02:51:49.879Z,1008.17
2022-12-20T02:52:49.902Z,1008.15
2022-12-20T02:53:54.876Z,1008.18
2022-12-20T02:54:49.860Z,1008.28
2022-12-20T02:55:49.845Z,1008.31
2022-12-20T02:56:49.818Z,1008.23
2022-12-20T02:57:53.400Z,1008.20
2022-12-20T02:58:50.819Z,1008.23
2022-12-20T02:59:49.805Z,1008.17
2022-12-20T03:00:49.795Z,1008.27
2022-12-20T03:01:50.004Z,1008.22
2022-12-20T03:02:49.947Z,1008.14
2022-12-20T03:03:49.817Z,1008.31
2022-12-20T03:04:54.802Z,1008.21
2022-12-20T03:05:49.764Z,1008.24
2022-12-20T03:06:49.726Z,1008.15
2022-12-20T03:07:49.698Z,1008.11
2022-12-20T03:08:49.684Z,1008.05
2022-12-20T03:09:50.693Z,1008.11
2022-12-20T03:10:49.677Z,1008.15
2022-12-20T03:11:49.665Z,1008.03
2022-12-20T03:12:49.642Z,1008.02
2022-12-20T03:13:49.638Z,1008.00
2022-12-20T03:14:49.646Z,1007.91
2022-12-20T03:15:54.714Z,1007.93
2022-12-20T03:16:49.718Z,1007.86
2022-12-20T03:17:49.607Z,1007.86
2022-12-20T03:18:49.583Z,1007.90
2022-12-20T03:19:49.581Z,1007.87
2022-12-20T03:20:49.588Z,1007.93
2022-12-20T03:21:49.555Z,1007.89
2022-12-20T03:22:49.545Z,1007.87
2022-12-20T03:23:49.539Z,1007.89
2022-12-20T03:24:49.517Z,1007.87
2022-12-20T03:25:49.500Z,1007.89
2022-12-20T03:26:55.578Z,1007.87
2022-12-20T03:27:49.488Z,1007.92
2022-12-20T03:28:50.471Z,1007.91
2022-12-20T03:29:49.452Z,1007.94
2022-12-20T03:30:49.525Z,1007.90
2022-12-20T03:31:49.451Z,1007.91
2022-12-20T03:32:49.417Z,1007.85
2022-12-20T03:33:49.413Z,1007.93
2022-12-20T03:34:49.399Z,1007.90
2022-12-20T03:35:49.378Z,1007.91
2022-12-20T03:36:49.381Z,1007.84
2022-12-20T03:37:54.395Z,1007.85
2022-12-20T03:38:49.353Z,1007.96
2022-12-20T03:39:49.340Z,1007.97
2022-12-20T03:40:49.336Z,1007.97
2022-12-20T03:41:49.325Z,1007.85
2022-12-20T03:42:49.310Z,1007.79
2022-12-20T03:43:49.293Z,1007.83
2022-12-20T03:44:49.381Z,1007.82
2022-12-20T03:45:49.424Z,1007.80
2022-12-20T03:46:49.391Z,1007.77
2022-12-20T03:47:49.247Z,1007.75
2022-12-20T03:48:54.334Z,1007.70
2022-12-20T03:49:49.240Z,1007.75
2022-12-20T03:50:49.257Z,1007.71
2022-12-20T03:51:49.246Z,1007.76
2022-12-20T03:52:49.219Z,1007.80
2022-12-20T03:53:49.174Z,1007.73
2022-12-20T03:54:49.202Z,1007.75
2022-12-20T03:55:49.175Z,1007.70
2022-12-20T03:56:49.181Z,1007.66
2022-12-20T03:57:49.155Z,1007.68
2022-12-20T03:58:49.133Z,1007.71
2022-12-20T03:59:54.138Z,1007.79
2022-12-20T04:00:49.114Z,1007.80
2022-12-20T04:01:49.274Z,1007.78
2022-12-20T04:02:49.382Z,1007.82
2022-12-20T04:03:49.158Z,1007.79
2022-12-20T04:04:49.083Z,1007.82
2022-12-20T04:05:49.046Z,1007.78
2022-12-20T04:06:49.079Z,1007.84
2022-12-20T04:07:49.041Z,1007.84
2022-12-20T04:08:49.021Z,1007.72
2022-12-20T04:09:49.019Z,1007.76
2022-12-20T04:10:54.016Z,1007.64
2022-12-20T04:11:49.091Z,1007.70
2022-12-20T04:12:48.983Z,1007.77
2022-12-20T04:13:48.959Z,1007.76
2022-12-20T04:14:48.955Z,1007.76
2022-12-20T04:15:49.067Z,1007.76
2022-12-20T04:16:48.960Z,1007.72
2022-12-20T04:17:48.929Z,1007.72
2022-12-20T04:18:48.924Z,1007.60
2022-12-20T04:19:48.888Z,1007.65
2022-12-20T04:20:48.891Z,1007.63
2022-12-20T04:21:56.771Z,1007.55
2022-12-20T04:22:49.868Z,1007.58
2022-12-20T04:23:48.859Z,1007.56
2022-12-20T04:24:48.845Z,1007.52
2022-12-20T04:25:48.837Z,1007.48
2022-12-20T04:26:48.826Z,1007.40
2022-12-20T04:27:48.817Z,1007.39
2022-12-20T04:28:49.795Z,1007.40
2022-12-20T04:29:48.783Z,1007.49
2022-12-20T04:30:48.841Z,1007.53
2022-12-20T04:31:48.842Z,1007.51
2022-12-20T04:32:53.767Z,1007.53
2022-12-20T04:33:48.749Z,1007.55
2022-12-20T04:34:48.758Z,1007.64
2022-12-20T04:35:48.717Z,1007.61
2022-12-20T04:36:48.730Z,1007.60
2022-12-20T04:37:48.696Z,1007.65
2022-12-20T04:38:48.679Z,1007.60
2022-12-20T04:39:48.676Z,1007.54
2022-12-20T04:40:48.660Z,1007.63
2022-12-20T04:41:48.674Z,1007.60
2022-12-20T04:42:48.643Z,1007.53
2022-12-20T04:43:53.670Z,1007.49
2022-12-20T04:44:48.618Z,1007.50
2022-12-20T04:45:48.618Z,1007.52
2022-12-20T04:46:48.705Z,1007.55
2022-12-20T04:47:48.586Z,1007.55
2022-12-20T04:48:58.285Z,1007.50
2022-12-20T04:49:49.608Z,1007.52
2022-12-20T04:50:48.579Z,1007.52
2022-12-20T04:51:48.549Z,1007.54
2022-12-20T04:52:48.578Z,1007.49
2022-12-20T04:53:48.518Z,1007.47
2022-12-20T04:54:53.542Z,1007.50
2022-12-20T04:55:48.492Z,1007.47
2022-12-20T04:56:48.497Z,1007.48
2022-12-20T04:57:48.482Z,1007.50
2022-12-20T04:58:48.467Z,1007.47
2022-12-20T04:59:48.468Z,1007.48
2022-12-20T05:00:48.456Z,1007.43
2022-12-20T05:01:48.563Z,1007.43
2022-12-20T05:02:48.546Z,1007.46
2022-12-20T05:03:48.467Z,1007.47
2022-12-20T05:04:48.462Z,1007.54
2022-12-20T05:05:53.423Z,1007.45
2022-12-20T05:06:48.394Z,1007.47
2022-12-20T05:07:48.425Z,1007.40
2022-12-20T05:08:48.351Z,1007.43
2022-12-20T05:09:48.337Z,1007.39
2022-12-20T05:10:48.325Z,1007.47
2022-12-20T05:11:48.335Z,1007.43
2022-12-20T05:12:48.309Z,1007.50
2022-12-20T05:13:48.306Z,1007.41
2022-12-20T05:14:48.283Z,1007.42
2022-12-20T05:15:48.334Z,1007.34
2022-12-20T05:16:53.703Z,1007.33
2022-12-20T05:17:48.270Z,1007.42
2022-12-20T05:18:49.547Z,1007.41
2022-12-20T05:19:48.230Z,1007.40
2022-12-20T05:20:48.216Z,1007.45
2022-12-20T05:21:48.234Z,1007.43
2022-12-20T05:22:48.212Z,1007.38
2022-12-20T05:23:48.192Z,1007.38
2022-12-20T05:24:48.174Z,1007.39
2022-12-20T05:25:48.158Z,1007.39
2022-12-20T05:26:48.146Z,1007.34
2022-12-20T05:27:53.175Z,1007.31
2022-12-20T05:28:48.130Z,1007.32
2022-12-20T05:29:48.138Z,1007.33
2022-12-20T05:30:48.106Z,1007.32
2022-12-20T05:31:48.271Z,1007.28
2022-12-20T05:32:48.113Z,1007.34
2022-12-20T05:33:48.078Z,1007.38
2022-12-20T05:34:48.070Z,1007.38
2022-12-20T05:35:48.080Z,1007.44
2022-12-20T05:36:48.044Z,1007.39
2022-12-20T05:37:49.065Z,1007.37
2022-12-20T05:38:55.493Z,1007.35
2022-12-20T05:39:49.033Z,1007.37
2022-12-20T05:40:48.001Z,1007.37
2022-12-20T05:41:47.998Z,1007.38
2022-12-20T05:42:47.985Z,1007.36
2022-12-20T05:43:47.968Z,1007.34
2022-12-20T05:44:47.946Z,1007.29
2022-12-20T05:45:47.980Z,1007.32
2022-12-20T05:46:48.028Z,1007.27
2022-12-20T05:47:47.927Z,1007.26
2022-12-20T05:48:47.985Z,1007.24
2022-12-20T05:49:52.970Z,1007.27
2022-12-20T05:50:47.903Z,1007.17
2022-12-20T05:51:48.865Z,1007.18
2022-12-20T05:52:47.884Z,1007.09
2022-12-20T05:53:47.879Z,1007.07
2022-12-20T05:54:47.840Z,1007.15
2022-12-20T05:55:47.830Z,1007.16
2022-12-20T05:56:47.818Z,1007.19
2022-12-20T05:57:47.836Z,1007.12
2022-12-20T05:58:47.806Z,1007.12
2022-12-20T05:59:47.794Z,1007.13
2022-12-20T06:00:52.803Z,1007.20
2022-12-20T06:01:47.917Z,1007.21
2022-12-20T06:02:48.073Z,1007.12
2022-12-20T06:03:47.919Z,1007.15
2022-12-20T06:04:47.726Z,1007.07
2022-12-20T06:05:47.715Z,1007.16
2022-12-20T06:06:47.725Z,1007.15
2022-12-20T06:07:47.734Z,1007.10
2022-12-20T06:08:47.696Z,1007.17
2022-12-20T06:09:47.695Z,1007.12
2022-12-20T06:10:47.661Z,1007.15
2022-12-20T06:11:52.670Z,1007.15
2022-12-20T06:12:47.672Z,1007.08
2022-12-20T06:13:47.642Z,1007.07
2022-12-20T06:14:47.628Z,1007.08
2022-12-20T06:15:47.608Z,1007.04
2022-12-20T06:16:47.663Z,1006.97
2022-12-20T06:17:47.601Z,1006.95
2022-12-20T06:18:48.210Z,1007.04
2022-12-20T06:19:47.575Z,1007.07
2022-12-20T06:20:47.548Z,1007.06
2022-12-20T06:21:47.541Z,1007.07
2022-12-20T06:22:52.586Z,1007.02
2022-12-20T06:23:47.528Z,1007.01
2022-12-20T06:24:48.774Z,1007.02
2022-12-20T06:25:47.516Z,1006.96
2022-12-20T06:26:47.489Z,1006.97
2022-12-20T06:27:47.485Z,1007.01
2022-12-20T06:28:47.462Z,1007.09
2022-12-20T06:29:47.453Z,1007.03
2022-12-20T06:30:47.453Z,1007.03
2022-12-20T06:31:47.496Z,1007.03
2022-12-20T06:32:47.517Z,1007.00
2022-12-20T06:33:52.430Z,1006.96
2022-12-20T06:34:47.396Z,1006.94
2022-12-20T06:35:47.407Z,1006.94
2022-12-20T06:36:47.398Z,1006.98
2022-12-20T06:37:47.373Z,1006.88
2022-12-20T06:38:47.353Z,1006.92
2022-12-20T06:39:47.337Z,1006.86
2022-12-20T06:40:48.302Z,1006.83
2022-12-20T06:41:47.345Z,1006.81
2022-12-20T06:42:47.313Z,1006.84
2022-12-20T06:43:47.293Z,1006.80
2022-12-20T06:44:52.311Z,1006.85
2022-12-20T06:45:47.320Z,1006.75
2022-12-20T06:46:47.322Z,1006.82
2022-12-20T06:47:48.464Z,1006.67
2022-12-20T06:48:47.235Z,1006.72
2022-12-20T06:49:47.229Z,1006.72
2022-12-20T06:50:53.724Z,1006.77
2022-12-20T06:51:48.205Z,1006.71
2022-12-20T06:52:47.248Z,1006.73
2022-12-20T06:53:47.183Z,1006.79
2022-12-20T06:54:47.186Z,1006.68
2022-12-20T06:55:52.180Z,1006.79
2022-12-20T06:56:47.162Z,1006.74
2022-12-20T06:57:47.253Z,1006.74
2022-12-20T06:58:47.124Z,1006.79
2022-12-20T06:59:47.110Z,1006.92
2022-12-20T07:00:47.178Z,1006.88
2022-12-20T07:01:47.361Z,1006.94
2022-12-20T07:02:47.176Z,1006.91
2022-12-20T07:03:47.166Z,1006.91
2022-12-20T07:04:47.063Z,1006.93
2022-12-20T07:05:47.059Z,1006.95
2022-12-20T07:06:52.073Z,1006.94
2022-12-20T07:07:47.041Z,1006.99
2022-12-20T07:08:48.063Z,1006.98
2022-12-20T07:09:47.002Z,1006.95
2022-12-20T07:10:46.993Z,1006.97
2022-12-20T07:11:47.058Z,1007.00
2022-12-20T07:12:48.374Z,1007.01
2022-12-20T07:13:46.984Z,1006.99
2022-12-20T07:14:47.033Z,1006.91
2022-12-20T07:15:46.943Z,1006.94
2022-12-20T07:16:47.504Z,1007.04
2022-12-20T07:17:51.966Z,1007.05
2022-12-20T07:18:46.959Z,1006.97
2022-12-20T07:19:50.725Z,1007.00
2022-12-20T07:20:46.877Z,1006.92
2022-12-20T07:21:46.872Z,1006.99
2022-12-20T07:22:46.871Z,1006.97
2022-12-20T07:23:46.875Z,1006.97
2022-12-20T07:24:47.849Z,1006.91
2022-12-20T07:25:46.831Z,1006.90
2022-12-20T07:26:46.814Z,1006.88
2022-12-20T07:27:46.975Z,1006.90
2022-12-20T07:28:51.951Z,1006.90
2022-12-20T07:29:46.807Z,1006.83
2022-12-20T07:30:46.785Z,1006.69
2022-12-20T07:31:46.831Z,1006.75
2022-12-20T07:32:46.773Z,1006.67
2022-12-20T07:33:46.796Z,1006.73
2022-12-20T07:34:47.265Z,1006.73
2022-12-20T07:35:50.953Z,1006.73
2022-12-20T07:36:47.724Z,1006.82
2022-12-20T07:37:46.701Z,1006.93
2022-12-20T07:38:46.725Z,1006.96
2022-12-20T07:39:51.708Z,1007.01
2022-12-20T07:40:46.654Z,1006.97
2022-12-20T07:41:46.678Z,1006.97
2022-12-20T07:42:49.072Z,1006.99
2022-12-20T07:43:46.838Z,1006.98
2022-12-20T07:44:46.675Z,1006.86
2022-12-20T07:45:46.683Z,1006.81
2022-12-20T07:46:47.699Z,1006.85
2022-12-20T07:47:46.617Z,1006.96
2022-12-20T07:48:46.590Z,1006.91
2022-12-20T07:49:47.733Z,1006.87
2022-12-20T07:50:51.575Z,1006.92
2022-12-20T07:51:46.554Z,1006.85
2022-12-20T07:52:46.520Z,1006.90
2022-12-20T07:53:47.520Z,1006.89
2022-12-20T07:54:46.649Z,1006.82
2022-12-20T07:55:46.518Z,1006.79
2022-12-20T07:56:46.478Z,1006.81
2022-12-20T07:57:46.479Z,1006.82
2022-12-20T07:58:46.465Z,1006.84
2022-12-20T07:59:46.464Z,1006.82
2022-12-20T08:00:46.456Z,1006.82
2022-12-20T08:01:51.735Z,1006.77
2022-12-20T08:02:46.566Z,1006.76
2022-12-20T08:03:46.551Z,1006.73
2022-12-20T08:04:46.396Z,1006.80
2022-12-20T08:05:47.375Z,1006.72
2022-12-20T08:06:46.383Z,1006.66
2022-12-20T08:07:46.359Z,1006.68
2022-12-20T08:08:46.368Z,1006.68
2022-12-20T08:09:46.381Z,1006.70
2022-12-20T08:10:46.327Z,1006.63
2022-12-20T08:11:46.308Z,1006.63
2022-12-20T08:12:51.329Z,1006.63
2022-12-20T08:13:47.511Z,1006.62
2022-12-20T08:14:46.280Z,1006.62
2022-12-20T08:15:46.308Z,1006.64
2022-12-20T08:16:46.398Z,1006.73
2022-12-20T08:17:46.246Z,1006.64
2022-12-20T08:18:46.488Z,1006.65
2022-12-20T08:19:46.225Z,1006.55
2022-12-20T08:20:46.227Z,1006.59
2022-12-20T08:21:46.197Z,1006.67
2022-12-20T08:22:46.188Z,1006.65
2022-12-20T08:23:51.214Z,1006.67
2022-12-20T08:24:46.170Z,1006.58
2022-12-20T08:25:46.162Z,1006.65
2022-12-20T08:26:47.152Z,1006.61
2022-12-20T08:27:46.184Z,1006.65
2022-12-20T08:28:46.338Z,1006.57
2022-12-20T08:29:46.267Z,1006.57
2022-12-20T08:30:46.191Z,1006.53
2022-12-20T08:31:50.277Z,1006.54
2022-12-20T08:32:46.185Z,1006.53
2022-12-20T08:33:46.077Z,1006.54
2022-12-20T08:34:51.095Z,1006.54
2022-12-20T08:35:46.044Z,1006.59
2022-12-20T08:36:46.090Z,1006.73
2022-12-20T08:37:46.019Z,1006.72
2022-12-20T08:38:46.055Z,1006.79
2022-12-20T08:39:46.029Z,1006.72
2022-12-20T08:40:46.010Z,1006.64
2022-12-20T08:41:45.974Z,1006.65
2022-12-20T08:42:45.976Z,1006.65
2022-12-20T08:43:45.968Z,1006.63
2022-12-20T08:44:45.942Z,1006.54
2022-12-20T08:45:51.995Z,1006.53
2022-12-20T08:46:45.964Z,1006.59
2022-12-20T08:47:45.917Z,1006.62
2022-12-20T08:48:45.948Z,1006.60
2022-12-20T08:49:47.997Z,1006.60
2022-12-20T08:50:45.923Z,1006.62
2022-12-20T08:51:45.969Z,1006.58
2022-12-20T08:52:45.855Z,1006.44
2022-12-20T08:53:45.848Z,1006.46
2022-12-20T08:54:45.856Z,1006.33
2022-12-20T08:55:45.821Z,1006.37
2022-12-20T08:56:50.838Z,1006.33
2022-12-20T08:57:45.804Z,1006.28
2022-12-20T08:58:45.793Z,1006.37
2022-12-20T08:59:45.793Z,1006.36
2022-12-20T09:00:45.768Z,1006.29
2022-12-20T09:01:45.894Z,1006.25
2022-12-20T09:02:46.870Z,1006.25
2022-12-20T09:03:45.851Z,1006.29
2022-12-20T09:04:45.799Z,1006.26
2022-12-20T09:05:45.708Z,1006.28
2022-12-20T09:06:45.703Z,1006.30
2022-12-20T09:07:50.712Z,1006.35
2022-12-20T09:08:45.677Z,1006.30
2022-12-20T09:09:45.678Z,1006.26
2022-12-20T09:10:45.712Z,1006.35
2022-12-20T09:11:45.644Z,1006.37
2022-12-20T09:12:45.730Z,1006.33
2022-12-20T09:13:45.665Z,1006.36
2022-12-20T09:14:45.640Z,1006.34
2022-12-20T09:15:45.697Z,1006.30
2022-12-20T09:16:45.588Z,1006.21
2022-12-20T09:17:45.575Z,1006.25
2022-12-20T09:18:50.606Z,1006.21
2022-12-20T09:19:45.626Z,1006.27
2022-12-20T09:20:45.574Z,1006.26
2022-12-20T09:21:45.552Z,1006.30
2022-12-20T09:22:45.523Z,1006.28
2022-12-20T09:23:45.510Z,1006.25
2022-12-20T09:24:45.533Z,1006.27
2022-12-20T09:25:50.245Z,1006.24
2022-12-20T09:26:46.506Z,1006.22
2022-12-20T09:27:45.476Z,1006.18
2022-12-20T09:28:45.457Z,1006.30
2022-12-20T09:29:50.512Z,1006.26
2022-12-20T09:30:45.516Z,1006.33
2022-12-20T09:31:45.469Z,1006.31
2022-12-20T09:32:45.420Z,1006.22
2022-12-20T09:33:45.395Z,1006.31
2022-12-20T09:34:45.403Z,1006.31
2022-12-20T09:35:45.378Z,1006.31
2022-12-20T09:36:45.395Z,1006.33
2022-12-20T09:37:45.353Z,1006.21
2022-12-20T09:38:45.339Z,1006.31
2022-12-20T09:39:45.344Z,1006.32
2022-12-20T09:40:50.354Z,1006.31
2022-12-20T09:41:45.318Z,1006.31
2022-12-20T09:42:45.313Z,1006.26
2022-12-20T09:43:45.289Z,1006.35
2022-12-20T09:44:45.294Z,1006.27
2022-12-20T09:45:45.260Z,1006.22
2022-12-20T09:46:45.331Z,1006.22
2022-12-20T09:47:45.255Z,1006.19
2022-12-20T09:48:45.231Z,1006.12
2022-12-20T09:49:45.238Z,1006.21
2022-12-20T09:50:45.213Z,1006.23
2022-12-20T09:51:50.254Z,1006.22
2022-12-20T09:52:45.216Z,1006.28
2022-12-20T09:53:45.184Z,1006.21
2022-12-20T09:54:45.171Z,1006.27
2022-12-20T09:55:45.161Z,1006.25
2022-12-20T09:56:45.157Z,1006.29
2022-12-20T09:57:45.139Z,1006.28
2022-12-20T09:58:45.133Z,1006.23
2022-12-20T09:59:49.564Z,1006.25
2022-12-20T10:00:51.721Z,1006.18
2022-12-20T10:01:46.177Z,1006.15
2022-12-20T10:03:06.577Z,1006.12
2022-12-20T10:03:46.318Z,1006.11
2022-12-20T10:04:45.415Z,1006.19
2022-12-20T10:05:45.171Z,1006.11
2022-12-20T10:06:45.066Z,1006.05
2022-12-20T10:07:45.044Z,1006.14
2022-12-20T10:08:45.022Z,1006.05
2022-12-20T10:09:45.016Z,1005.99
2022-12-20T10:10:44.984Z,1005.94
2022-12-20T10:11:50.397Z,1005.91
2022-12-20T10:12:45.966Z,1005.98
2022-12-20T10:13:49.972Z,1005.95
2022-12-20T10:14:44.941Z,1005.89
2022-12-20T10:15:44.987Z,1005.88
2022-12-20T10:16:44.923Z,1005.88
2022-12-20T10:17:44.906Z,1005.86
2022-12-20T10:18:44.899Z,1005.86
2022-12-20T10:19:45.029Z,1005.91
2022-12-20T10:20:44.891Z,1005.98
2022-12-20T10:21:44.870Z,1006.00
2022-12-20T10:22:44.877Z,1006.00
2022-12-20T10:23:44.859Z,1006.02
2022-12-20T10:24:49.854Z,1005.98
2022-12-20T10:25:44.839Z,1006.10
2022-12-20T10:26:44.829Z,1006.07
2022-12-20T10:27:44.806Z,1006.08
2022-12-20T10:28:48.084Z,1005.99
2022-12-20T10:29:45.805Z,1005.98
2022-12-20T10:30:44.771Z,1006.00
2022-12-20T10:31:44.844Z,1006.08
2022-12-20T10:32:44.750Z,1006.05
2022-12-20T10:33:44.769Z,1006.10
2022-12-20T10:34:48.519Z,1006.04
2022-12-20T10:35:49.753Z,1006.06
2022-12-20T10:36:44.695Z,1006.06
2022-12-20T10:38:06.360Z,1006.04
2022-12-20T10:38:45.686Z,1006.03
2022-12-20T10:39:44.689Z,1006.08
2022-12-20T10:41:45.686Z,1005.92
2022-12-20T10:42:44.634Z,1005.97
2022-12-20T10:43:44.650Z,1005.96
2022-12-20T10:44:44.646Z,1005.98
2022-12-20T10:45:44.606Z,1005.92
2022-12-20T10:46:49.717Z,1005.95
2022-12-20T10:47:44.586Z,1005.90
2022-12-20T10:48:44.576Z,1005.89
2022-12-20T10:49:44.551Z,1005.88
2022-12-20T10:50:44.573Z,1005.84
2022-12-20T10:51:44.525Z,1005.85
2022-12-20T10:52:45.522Z,1005.78
2022-12-20T10:53:44.505Z,1005.77
2022-12-20T10:54:44.514Z,1005.69
2022-12-20T10:55:44.566Z,1005.67
2022-12-20T10:56:44.476Z,1005.63
2022-12-20T10:57:49.500Z,1005.64
2022-12-20T10:58:44.457Z,1005.57
2022-12-20T10:59:44.444Z,1005.55
2022-12-20T11:00:44.447Z,1005.50
2022-12-20T11:01:44.544Z,1005.52
2022-12-20T11:02:44.590Z,1005.48
2022-12-20T11:03:44.533Z,1005.38
2022-12-20T11:04:44.396Z,1005.34
2022-12-20T11:05:44.395Z,1005.43
2022-12-20T11:06:44.385Z,1005.33
2022-12-20T11:08:08.475Z,1005.31
2022-12-20T11:08:55.423Z,1005.38
2022-12-20T11:09:45.343Z,1005.39
2022-12-20T11:10:44.327Z,1005.42
2022-12-20T11:11:44.346Z,1005.27
2022-12-20T11:12:44.345Z,1005.39
2022-12-20T11:13:44.285Z,1005.42
2022-12-20T11:14:44.277Z,1005.43
2022-12-20T11:15:44.295Z,1005.43
2022-12-20T11:16:44.359Z,1005.41
2022-12-20T11:17:44.267Z,1005.29
2022-12-20T11:18:44.238Z,1005.28
2022-12-20T11:19:49.241Z,1005.22
2022-12-20T11:20:44.240Z,1005.17
2022-12-20T11:21:44.218Z,1005.14
2022-12-20T11:22:44.196Z,1005.16
2022-12-20T11:23:44.262Z,1005.17
2022-12-20T11:24:44.214Z,1005.20
2022-12-20T11:25:44.154Z,1005.25
2022-12-20T11:26:44.162Z,1005.29
2022-12-20T11:27:44.152Z,1005.33
2022-12-20T11:28:44.141Z,1005.26
2022-12-20T11:29:44.149Z,1005.27
2022-12-20T11:30:49.124Z,1005.18
2022-12-20T11:31:44.213Z,1005.28
2022-12-20T11:32:48.687Z,1005.15
2022-12-20T11:33:45.095Z,1005.17
2022-12-20T11:34:44.052Z,1005.13
2022-12-20T11:35:44.046Z,1005.12
2022-12-20T11:36:44.041Z,1005.05
2022-12-20T11:37:44.025Z,1005.07
2022-12-20T11:38:44.008Z,1005.13
2022-12-20T11:39:44.015Z,1005.13
2022-12-20T11:40:44.057Z,1005.16
2022-12-20T11:41:49.015Z,1005.15
2022-12-20T11:42:43.973Z,1005.25
2022-12-20T11:44:15.739Z,1005.23
2022-12-20T11:44:53.904Z,1005.12
2022-12-20T11:45:44.928Z,1005.10
2022-12-20T11:46:44.004Z,1005.13
2022-12-20T11:47:43.976Z,1005.10
2022-12-20T11:48:43.898Z,1005.06
2022-12-20T11:49:43.886Z,1005.03
2022-12-20T11:50:43.916Z,1004.97
2022-12-20T11:51:43.904Z,1004.98
2022-12-20T11:52:48.873Z,1004.96
2022-12-20T11:53:43.863Z,1004.93
2022-12-20T11:54:43.828Z,1004.96
2022-12-20T11:55:43.824Z,1004.90
2022-12-20T11:56:45.160Z,1004.93
2022-12-20T11:58:09.523Z,1004.86
2022-12-20T11:58:44.791Z,1004.88
2022-12-20T11:59:43.796Z,1004.95
2022-12-20T12:00:43.770Z,1004.88
2022-12-20T12:01:43.927Z,1004.80
2022-12-20T12:02:43.964Z,1004.87
2022-12-20T12:03:48.751Z,1004.89
2022-12-20T12:04:44.025Z,1004.80
2022-12-20T12:05:43.793Z,1004.88
2022-12-20T12:06:43.702Z,1004.84
2022-12-20T12:07:43.704Z,1004.86
2022-12-20T12:08:43.671Z,1004.91
2022-12-20T12:09:43.662Z,1004.89
2022-12-20T12:10:44.647Z,1004.84
2022-12-20T12:12:44.647Z,1004.91
2022-12-20T12:13:43.691Z,1004.76
2022-12-20T12:14:48.706Z,1004.75
2022-12-20T12:15:43.595Z,1004.75
2022-12-20T12:16:43.631Z,1004.80
2022-12-20T12:17:43.594Z,1004.68
2022-12-20T12:18:43.561Z,1004.62
2022-12-20T12:19:43.554Z,1004.74
2022-12-20T12:20:43.541Z,1004.65
2022-12-20T12:21:43.528Z,1004.76
2022-12-20T12:22:43.526Z,1004.87
2022-12-20T12:23:43.515Z,1004.72
2022-12-20T12:24:43.527Z,1004.77
2022-12-20T12:25:48.526Z,1004.79
2022-12-20T12:26:43.473Z,1004.77